Time;durP1;ratioP1;P1;durP2;ratioP2;P2;SDS_P1;SDS_P2;PMS_P1;PMS_P2;Temp;Humidity;BMP_temperature;BMP_pressure;BME280_temperature;BME280_humidity;BME280_pressure;Samples;Min_cycle;Max_cycle;Signal;HPM_P1;HPM_P2
2021/01/09 00:01:46;;;;;;;18.40;10.37;;;1.50;99.90;;;2.10;100.00;98364.94;5062484;28;20512;-82
2021/01/09 00:04:14;;;;;;;13.43;8.60;;;1.30;99.90;;;2.09;100.00;98365.84;5055980;28;20482;-82
2021/01/09 00:06:43;;;;;;;16.67;9.67;;;1.30;99.90;;;2.19;100.00;98369.31;5062371;28;20844;-83
2021/01/09 00:09:11;;;;;;;13.20;9.03;;;1.50;99.90;;;2.22;100.00;98374.22;5062360;28;20506;-82
2021/01/09 00:11:39;;;;;;;17.20;10.27;;;1.50;99.90;;;2.27;100.00;98382.41;5061975;28;20468;-81
2021/01/09 00:14:06;;;;;;;15.20;9.30;;;1.60;99.90;;;2.20;100.00;98370.13;5061591;28;20464;-82
2021/01/09 00:16:34;;;;;;;17.80;9.40;;;1.40;99.90;;;2.25;100.00;98381.72;5062101;28;20468;-82
2021/01/09 00:19:03;;;;;;;15.37;9.90;;;1.50;99.90;;;2.29;100.00;98380.50;5063292;28;20576;-82
2021/01/09 00:21:36;;;;;;;14.80;9.00;;;1.60;99.90;;;2.32;100.00;98385.44;5063313;28;20517;-82
2021/01/09 00:24:06;;;;;;;12.77;8.23;;;1.60;99.90;;;2.35;100.00;98386.94;5065473;28;20444;-82
2021/01/09 00:26:35;;;;;;;9.97;6.87;;;1.60;99.90;;;2.28;100.00;98386.63;5062875;28;20551;-82
2021/01/09 00:29:03;;;;;;;10.33;6.27;;;1.60;99.90;;;2.26;100.00;98391.09;5062846;28;21109;-82
2021/01/09 00:31:32;;;;;;;11.93;7.13;;;1.50;99.90;;;2.15;100.00;98396.34;5064897;28;20460;-82
2021/01/09 00:34:00;;;;;;;8.07;5.97;;;1.40;99.90;;;2.15;100.00;98395.50;5063087;28;20475;-82
2021/01/09 00:36:28;;;;;;;7.70;5.57;;;1.40;99.90;;;2.09;100.00;98401.97;5063516;28;20464;-82
2021/01/09 00:38:56;;;;;;;14.03;6.83;;;1.40;99.90;;;2.11;100.00;98396.69;5065653;28;20825;-82
2021/01/09 00:41:28;;;;;;;9.23;5.83;;;1.50;99.90;;;1.93;100.00;98386.13;5069969;28;20478;-82
2021/01/09 00:43:56;;;;;;;9.83;5.97;;;1.30;99.90;;;1.85;100.00;98385.91;5069068;28;20920;-82
2021/01/09 00:46:24;;;;;;;8.07;5.40;;;1.20;99.90;;;1.84;100.00;98389.44;5070246;28;20789;-82
2021/01/09 00:48:52;;;;;;;11.13;5.47;;;1.20;99.90;;;1.80;100.00;98393.22;5067691;28;20456;-82
2021/01/09 00:51:19;;;;;;;8.30;5.43;;;1.20;99.90;;;1.81;100.00;98394.81;5065702;28;20463;-83
2021/01/09 00:53:47;;;;;;;6.47;5.00;;;1.20;99.90;;;1.77;100.00;98399.41;5068778;28;20475;-82
2021/01/09 00:56:16;;;;;;;9.07;5.47;;;1.10;99.90;;;1.68;100.00;98399.34;5068153;28;20466;-83
2021/01/09 00:58:44;;;;;;;7.93;4.80;;;1.00;99.90;;;1.67;100.00;98398.50;5065134;28;20460;-82
2021/01/09 01:01:12;;;;;;;9.40;5.30;;;1.00;99.90;;;1.69;100.00;98406.13;5068048;28;20487;-83
2021/01/09 01:03:42;;;;;;;8.30;5.30;;;1.00;99.90;;;1.60;100.00;98404.31;5068265;28;20468;-83
2021/01/09 01:06:10;;;;;;;8.10;5.87;;;0.90;99.90;;;1.58;100.00;98401.00;5064445;28;20494;-83
2021/01/09 01:08:39;;;;;;;10.50;6.40;;;1.00;99.90;;;1.62;100.00;98404.97;5067870;28;20480;-83
2021/01/09 01:11:10;;;;;;;7.23;5.40;;;0.90;99.90;;;1.58;100.00;98408.75;5066871;28;20465;-83
2021/01/09 01:13:38;;;;;;;9.10;5.73;;;0.90;99.90;;;1.53;100.00;98407.34;5068013;28;20460;-83
2021/01/09 01:16:06;;;;;;;10.83;6.00;;;0.80;99.90;;;1.53;100.00;98407.34;5065940;28;20473;-83
2021/01/09 01:18:34;;;;;;;8.67;5.40;;;0.90;99.90;;;1.56;100.00;98410.63;5067545;28;20469;-83
2021/01/09 01:21:02;;;;;;;8.57;5.87;;;0.80;99.90;;;1.49;100.00;98413.69;5065009;28;20550;-82
2021/01/09 01:23:29;;;;;;;11.07;6.30;;;0.70;99.90;;;1.49;100.00;98411.09;5067287;28;20464;-83
2021/01/09 01:25:56;;;;;;;9.47;5.90;;;0.70;99.90;;;1.46;100.00;98410.53;5067763;28;20460;-83
2021/01/09 01:28:24;;;;;;;10.27;5.90;;;0.70;99.90;;;1.36;100.00;98415.59;5062516;28;20939;-83
2021/01/09 01:30:53;;;;;;;10.90;6.27;;;0.60;99.90;;;1.30;100.00;98423.81;5061043;28;20533;-83
2021/01/09 01:33:20;;;;;;;9.50;6.20;;;0.50;99.90;;;1.28;100.00;98420.53;5063670;28;20884;-82
2021/01/09 01:35:48;;;;;;;9.20;6.00;;;0.50;99.90;;;1.25;100.00;98428.47;5064351;28;20461;-83
2021/01/09 01:38:16;;;;;;;8.60;5.63;;;0.50;99.90;;;1.26;100.00;98432.69;5065849;28;20530;-83
2021/01/09 01:40:43;;;;;;;13.20;6.50;;;0.50;99.90;;;1.23;100.00;98425.22;5066669;28;20511;-83
2021/01/09 01:43:11;;;;;;;8.77;5.23;;;0.40;99.90;;;1.18;100.00;98440.19;5066078;28;20551;-83
2021/01/09 01:45:41;;;;;;;10.50;6.30;;;0.40;99.90;;;1.11;100.00;98433.88;5062444;28;20482;-83
2021/01/09 01:48:11;;;;;;;8.77;5.57;;;0.30;99.90;;;1.07;100.00;98437.66;5066882;28;20833;-83
2021/01/09 01:50:41;;;;;;;7.20;5.17;;;0.20;99.90;;;1.03;100.00;98446.53;5065567;28;21045;-83
2021/01/09 01:53:09;;;;;;;8.30;5.90;;;0.20;99.90;;;0.96;100.00;98437.66;5064873;28;20961;-83
2021/01/09 01:55:36;;;;;;;10.70;6.50;;;0.10;99.90;;;0.88;100.00;98445.13;5064751;28;20534;-83
2021/01/09 01:58:04;;;;;;;10.03;6.23;;;0.00;99.90;;;0.92;100.00;98449.94;5066918;28;20518;-83
2021/01/09 02:00:32;;;;;;;11.30;6.60;;;0.10;99.90;;;0.90;100.00;98454.34;5066929;28;20498;-83
2021/01/09 02:03:02;;;;;;;8.07;5.37;;;0.10;99.90;;;0.87;100.00;98458.91;5062546;28;20478;-83
2021/01/09 02:05:46;;;;;;;10.13;5.70;;;0.10;99.90;;;0.84;100.00;98454.84;5064116;28;20485;-83
2021/01/09 02:08:18;;;;;;;8.37;5.37;;;0.00;99.90;;;0.82;100.00;98451.56;5066332;28;20490;-83
2021/01/09 02:10:55;;;;;;;11.37;5.80;;;0.00;99.90;;;0.79;100.00;98453.56;5060875;28;20468;-83
2021/01/09 02:13:33;;;;;;;10.00;5.83;;;0.00;99.90;;;0.81;100.00;98451.66;5067932;28;20467;-83
2021/01/09 02:16:03;;;;;;;8.50;5.43;;;0.10;99.90;;;0.79;100.00;98448.41;5063445;28;21035;-83
2021/01/09 02:18:36;;;;;;;12.43;6.63;;;0.00;99.90;;;0.82;100.00;98455.88;5067178;28;20460;-83
2021/01/09 02:21:25;;;;;;;11.93;6.50;;;0.20;99.90;;;0.79;100.00;98450.97;5059538;28;20493;-83
2021/01/09 02:23:54;;;;;;;10.47;6.17;;;0.10;99.90;;;0.74;100.00;98447.91;5067123;28;20509;-83
2021/01/09 02:26:23;;;;;;;10.20;6.53;;;0.00;99.90;;;0.73;100.00;98457.38;5062279;28;20543;-83
2021/01/09 02:28:51;;;;;;;11.87;6.00;;;0.00;99.90;;;0.72;100.00;98452.38;5064027;28;20480;-83
2021/01/09 02:31:24;;;;;;;8.77;5.43;;;0.10;99.90;;;0.72;100.00;98444.66;5064025;28;20464;-83
2021/01/09 02:33:52;;;;;;;9.90;5.90;;;0.00;99.90;;;0.75;100.00;98444.41;5065816;28;20475;-83
2021/01/09 02:36:20;;;;;;;10.80;6.30;;;0.10;99.90;;;0.79;100.00;98445.84;5062057;28;20461;-83
2021/01/09 02:38:48;;;;;;;12.50;5.73;;;0.10;99.90;;;0.81;100.00;98441.38;5064184;28;20957;-83
2021/01/09 02:41:18;;;;;;;7.00;5.20;;;0.10;99.90;;;0.85;100.00;98447.94;5065549;28;20496;-83
2021/01/09 02:43:46;;;;;;;9.60;5.93;;;0.20;99.90;;;0.85;100.00;98455.66;5064528;28;20467;-83
2021/01/09 02:46:14;;;;;;;7.63;5.40;;;0.10;99.90;;;0.82;100.00;98445.59;5065457;28;20481;-83
2021/01/09 02:48:43;;;;;;;9.03;5.67;;;0.10;99.90;;;0.86;100.00;98447.00;5064916;28;20551;-82
2021/01/09 02:51:11;;;;;;;9.40;6.03;;;0.20;99.90;;;0.85;100.00;98456.47;5063645;28;20464;-82
2021/01/09 02:53:39;;;;;;;10.67;5.87;;;0.20;99.90;;;0.83;100.00;98452.38;5062467;28;20494;-83
2021/01/09 02:56:08;;;;;;;8.30;4.93;;;0.20;99.90;;;0.86;100.00;98460.69;5063517;28;20823;-83
2021/01/09 02:58:37;;;;;;;11.00;5.33;;;0.30;99.90;;;0.79;100.00;98461.28;5065427;28;20502;-83
2021/01/09 03:01:04;;;;;;;8.03;5.47;;;0.30;99.90;;;0.75;100.00;98447.81;5057176;28;20492;-83
2021/01/09 03:03:32;;;;;;;14.33;6.73;;;0.20;99.90;;;0.77;100.00;98448.50;5065561;28;20636;-83
2021/01/09 03:06:01;;;;;;;8.80;5.13;;;0.20;99.90;;;0.79;100.00;98451.81;5066409;28;20468;-83
2021/01/09 03:08:29;;;;;;;10.00;5.57;;;0.20;99.90;;;0.81;100.00;98454.25;5067682;28;20480;-83
2021/01/09 03:10:57;;;;;;;13.10;5.93;;;0.30;99.90;;;0.78;100.00;98457.06;5064446;28;20472;-83
2021/01/09 03:13:25;;;;;;;10.00;5.70;;;0.20;99.90;;;0.81;100.00;98461.97;5064970;28;20456;-83
2021/01/09 03:15:55;;;;;;;7.70;4.80;;;0.20;99.90;;;0.84;100.00;98462.56;5063880;28;20555;-83
2021/01/09 03:18:23;;;;;;;8.10;5.60;;;0.20;99.90;;;0.83;100.00;98462.69;5062543;28;20488;-83
2021/01/09 03:20:51;;;;;;;9.40;5.30;;;0.20;99.90;;;0.84;100.00;98464.31;5064199;28;20854;-83
2021/01/09 03:23:19;;;;;;;10.00;4.93;;;0.20;99.90;;;0.77;100.00;98468.28;5066490;28;20835;-83
2021/01/09 03:25:48;;;;;;;7.47;5.00;;;0.10;99.90;;;0.83;100.00;98470.41;5064448;28;20491;-83
2021/01/09 03:28:16;;;;;;;9.53;5.30;;;0.30;99.90;;;0.80;100.00;98463.72;5057215;28;20988;-83
2021/01/09 03:30:44;;;;;;;7.10;5.10;;;0.20;99.90;;;0.80;100.00;98457.78;5064377;28;20472;-83
2021/01/09 03:33:13;;;;;;;10.77;6.00;;;0.30;99.90;;;0.85;100.00;98463.38;5062877;28;20483;-83
2021/01/09 03:35:41;;;;;;;7.33;4.90;;;0.40;99.90;;;0.84;100.00;98454.00;5061484;28;20499;-83
2021/01/09 03:38:10;;;;;;;10.40;5.10;;;0.20;99.90;;;0.74;100.00;98456.47;5061181;28;20460;-83
2021/01/09 03:40:38;;;;;;;9.43;5.33;;;0.10;99.90;;;0.82;100.00;98464.44;5066222;28;20862;-83
2021/01/09 03:43:06;;;;;;;6.50;4.50;;;0.30;99.90;;;0.82;100.00;98461.03;5062434;28;20499;-83
2021/01/09 03:45:33;;;;;;;8.80;5.70;;;0.20;99.90;;;0.85;100.00;98465.94;5061218;28;20472;-83
2021/01/09 03:48:01;;;;;;;7.47;5.17;;;0.20;99.90;;;0.89;100.00;98473.34;5064238;28;20533;-83
2021/01/09 03:50:29;;;;;;;8.00;5.10;;;0.20;99.90;;;0.95;100.00;98469.47;5064811;28;20463;-83
2021/01/09 03:52:57;;;;;;;9.37;5.97;;;0.30;99.90;;;0.92;100.00;98465.38;5064456;28;20471;-83
2021/01/09 03:55:24;;;;;;;10.27;5.40;;;0.30;99.90;;;0.90;100.00;98463.88;5060678;28;20534;-83
2021/01/09 03:57:52;;;;;;;9.80;5.90;;;0.20;99.90;;;0.92;100.00;98457.66;5066172;28;20444;-83
2021/01/09 04:00:21;;;;;;;8.97;5.73;;;0.20;99.90;;;0.97;100.00;98465.81;5059397;28;20557;-83
2021/01/09 04:02:48;;;;;;;9.30;5.70;;;0.30;99.90;;;0.98;100.00;98461.50;5064323;28;20468;-83
2021/01/09 04:05:16;;;;;;;10.73;5.27;;;0.30;99.90;;;0.97;100.00;98465.81;5065570;28;20489;-84
2021/01/09 04:07:44;;;;;;;6.80;5.00;;;0.30;99.90;;;1.00;100.00;98470.78;5064999;28;20967;-83
2021/01/09 04:10:12;;;;;;;9.00;5.40;;;0.30;99.90;;;0.97;100.00;98458.09;5066996;28;20452;-83
2021/01/09 04:12:39;;;;;;;6.90;4.77;;;0.30;99.90;;;0.97;100.00;98465.03;5065512;28;20503;-83
2021/01/09 04:15:08;;;;;;;8.00;4.80;;;0.40;99.90;;;0.98;100.00;98461.50;5066251;28;20554;-83
2021/01/09 04:17:35;;;;;;;8.37;5.07;;;0.30;99.90;;;0.97;100.00;98465.03;5067097;28;20933;-83
2021/01/09 04:20:05;;;;;;;7.80;5.00;;;0.30;99.90;;;0.95;100.00;98466.88;5066224;28;20495;-83
2021/01/09 04:22:33;;;;;;;10.37;5.10;;;0.30;99.90;;;1.00;100.00;98459.66;5066351;28;20464;-83
2021/01/09 04:25:01;;;;;;;6.17;4.60;;;0.30;99.90;;;0.95;100.00;98462.56;5067873;28;20524;-83
2021/01/09 04:27:29;;;;;;;8.27;5.30;;;0.30;99.90;;;0.94;100.00;98465.25;5069556;28;21116;-83
2021/01/09 04:29:56;;;;;;;7.00;4.40;;;0.30;99.90;;;0.95;100.00;98466.88;5065432;28;20460;-83
2021/01/09 04:32:24;;;;;;;7.60;4.67;;;0.30;99.90;;;0.95;100.00;98469.47;5063896;28;20968;-83
2021/01/09 04:34:51;;;;;;;7.80;4.60;;;0.30;99.90;;;1.04;100.00;98466.22;5066348;28;20919;-83
2021/01/09 04:37:21;;;;;;;10.30;5.47;;;0.50;99.90;;;1.08;100.00;98471.94;5065719;28;20465;-83
2021/01/09 04:39:49;;;;;;;7.17;4.63;;;0.40;99.90;;;1.07;100.00;98471.13;5062021;28;20557;-82
2021/01/09 04:42:18;;;;;;;8.00;5.10;;;0.40;99.90;;;1.06;100.00;98459.19;5060050;28;20541;-83
2021/01/09 04:44:46;;;;;;;9.17;5.67;;;0.40;99.90;;;1.10;100.00;98465.72;5062188;28;20554;-77
2021/01/09 04:47:16;;;;;;;8.10;5.27;;;0.50;99.90;;;1.14;100.00;98469.72;5067893;28;20456;-81
2021/01/09 04:49:45;;;;;;;8.60;5.27;;;0.60;99.90;;;1.14;100.00;98476.63;5066326;28;20543;-83
2021/01/09 04:52:14;;;;;;;9.30;4.73;;;0.50;99.90;;;1.15;100.00;98473.91;5068349;28;20455;-83
2021/01/09 04:54:43;;;;;;;10.20;5.87;;;0.50;99.90;;;1.15;100.00;98473.91;5070118;28;20834;-83
2021/01/09 04:57:12;;;;;;;8.40;5.73;;;0.50;99.90;;;1.15;100.00;98479.06;5068100;28;20448;-82
2021/01/09 04:59:41;;;;;;;10.77;5.40;;;0.60;99.90;;;1.10;100.00;98467.47;5068226;28;20456;-82
2021/01/09 05:02:12;;;;;;;10.23;5.87;;;0.40;99.90;;;1.10;100.00;98473.44;5068948;28;20449;-82
2021/01/09 05:04:45;;;;;;;6.97;5.00;;;0.40;99.90;;;1.12;100.00;98476.72;5068174;28;20971;-81
2021/01/09 05:07:12;;;;;;;8.70;5.30;;;0.50;99.90;;;1.09;100.00;98479.53;5068935;28;20444;-82
2021/01/09 05:09:40;;;;;;;9.07;5.00;;;0.40;99.90;;;1.12;100.00;98484.44;5067017;28;20456;-82
2021/01/09 05:12:10;;;;;;;8.40;5.47;;;0.40;99.90;;;1.16;100.00;98483.28;5067980;28;20455;-82
2021/01/09 05:14:38;;;;;;;7.60;5.83;;;0.40;99.90;;;1.14;100.00;98490.31;5067292;28;20838;-81
2021/01/09 05:17:08;;;;;;;9.30;5.67;;;0.40;99.90;;;1.08;100.00;98493.34;5068265;28;20815;-80
2021/01/09 05:19:37;;;;;;;7.33;5.00;;;0.30;99.90;;;1.10;100.00;98491.47;5068210;28;20447;-78
2021/01/09 05:22:06;;;;;;;8.40;5.30;;;0.40;99.90;;;1.08;100.00;98498.47;5069839;28;20475;-83
2021/01/09 05:24:36;;;;;;;9.67;5.70;;;0.30;99.90;;;1.09;100.00;98494.97;5069468;28;20444;-84
2021/01/09 05:27:06;;;;;;;9.63;5.83;;;0.30;99.90;;;1.01;100.00;98490.41;5068996;28;21035;-84
2021/01/09 05:29:34;;;;;;;12.73;6.63;;;0.20;99.90;;;1.05;100.00;98508.19;5068532;28;21044;-85
2021/01/09 05:32:08;;;;;;;9.10;5.50;;;0.20;99.90;;;1.08;100.00;98503.63;5069807;28;20510;-84
2021/01/09 05:34:53;;;;;;;8.40;5.40;;;0.40;99.90;;;1.04;100.00;98502.25;5068360;28;20874;-83
2021/01/09 05:37:24;;;;;;;7.63;5.17;;;0.30;99.90;;;1.08;100.00;98503.63;5064278;28;20480;-82
2021/01/09 05:39:55;;;;;;;8.63;5.57;;;0.40;99.90;;;1.06;100.00;98508.09;5069158;28;20498;-83
2021/01/09 05:42:26;;;;;;;10.60;6.30;;;0.30;99.90;;;1.06;100.00;98510.66;5066850;28;20445;-83
2021/01/09 05:44:56;;;;;;;7.27;5.10;;;0.30;99.90;;;0.98;100.00;98511.25;5067157;28;20476;-83
2021/01/09 05:47:28;;;;;;;10.07;6.03;;;0.20;99.90;;;1.01;100.00;98517.91;5068249;28;20801;-82
2021/01/09 05:49:58;;;;;;;8.37;5.03;;;0.20;99.90;;;1.02;100.00;98514.41;5061777;28;20448;-83
2021/01/09 05:52:28;;;;;;;12.53;6.13;;;0.20;99.90;;;1.02;100.00;98524.69;5067616;28;20468;-83
2021/01/09 05:54:57;;;;;;;9.00;5.97;;;0.40;99.90;;;1.07;100.00;98532.91;5067845;28;20964;-83
2021/01/09 05:57:30;;;;;;;10.30;5.70;;;0.40;99.90;;;1.08;100.00;98531.16;5067647;28;20824;-83
2021/01/09 05:59:59;;;;;;;8.80;6.00;;;0.30;99.90;;;1.06;100.00;98533.84;5067708;28;20511;-83
2021/01/09 06:02:31;;;;;;;7.50;5.47;;;0.30;99.90;;;1.10;100.00;98530.09;5068267;28;20979;-83
2021/01/09 06:05:03;;;;;;;10.20;5.60;;;0.30;99.90;;;1.08;100.00;98526.81;5067742;28;21066;-83
2021/01/09 06:07:35;;;;;;;7.80;5.37;;;0.30;99.90;;;1.04;100.00;98522.84;5068836;28;20453;-83
2021/01/09 06:10:12;;;;;;;9.40;5.30;;;0.40;99.90;;;1.07;100.00;98520.03;5067717;28;20834;-83
2021/01/09 06:12:59;;;;;;;13.03;6.60;;;0.40;99.90;;;1.12;100.00;98520.50;5066853;28;20507;-83
2021/01/09 06:15:31;;;;;;;8.63;6.13;;;0.40;99.90;;;1.15;100.00;98524.59;5067019;28;20472;-83
2021/01/09 06:18:01;;;;;;;11.00;6.20;;;0.50;99.90;;;1.19;100.00;98513.94;5065405;28;20440;-83
2021/01/09 06:20:30;;;;;;;12.97;6.90;;;0.60;99.90;;;1.13;100.00;98516.16;5067800;28;21064;-82
2021/01/09 06:23:00;;;;;;;11.63;6.97;;;0.40;99.90;;;1.04;100.00;98509.16;5066960;28;20460;-83
2021/01/09 06:25:30;;;;;;;11.77;6.83;;;0.30;99.90;;;1.10;100.00;98517.22;5067580;28;20537;-83
2021/01/09 06:28:03;;;;;;;12.73;7.40;;;0.30;99.90;;;1.15;100.00;98509.13;5067096;28;21102;-83
2021/01/09 06:30:34;;;;;;;14.00;7.07;;;0.40;99.90;;;1.19;100.00;98519.09;5067149;28;20454;-83
2021/01/09 06:33:04;;;;;;;11.47;7.23;;;0.50;99.90;;;1.20;100.00;98513.00;5066678;28;20456;-83
2021/01/09 06:35:33;;;;;;;9.33;6.03;;;0.50;99.90;;;1.19;100.00;98526.81;5066581;28;20453;-83
2021/01/09 06:38:02;;;;;;;12.30;6.00;;;0.50;99.90;;;1.19;100.00;98526.00;5067225;28;20518;-82
2021/01/09 06:40:30;;;;;;;12.93;7.07;;;0.40;99.90;;;1.19;100.00;98537.13;5065506;28;20492;-83
2021/01/09 06:43:00;;;;;;;12.50;6.83;;;0.40;99.90;;;1.23;100.00;98530.81;5068178;28;20478;-83
2021/01/09 06:45:30;;;;;;;9.70;6.10;;;0.50;99.90;;;1.21;100.00;98529.28;5067324;28;20499;-83
2021/01/09 06:48:02;;;;;;;14.30;7.50;;;0.50;99.90;;;1.25;100.00;98536.66;5067198;28;20452;-83
2021/01/09 06:50:34;;;;;;;11.80;6.30;;;0.70;99.90;;;1.22;100.00;98531.72;5066377;28;21181;-82
2021/01/09 06:53:04;;;;;;;13.90;6.90;;;0.60;99.90;;;1.22;100.00;98531.72;5065900;28;20844;-83
2021/01/09 06:56:09;;;;;;;12.33;6.63;;;0.60;99.90;;;1.19;100.00;98528.56;5066839;28;20471;-83
2021/01/09 06:58:38;;;;;;;8.70;5.67;;;0.60;99.90;;;1.12;100.00;98528.22;5066869;28;20498;-83
2021/01/09 07:01:23;;;;;;;13.30;7.53;;;0.50;99.90;;;1.12;100.00;98532.53;5066692;28;20491;-83
2021/01/09 07:03:52;;;;;;;10.93;6.93;;;0.50;99.90;;;1.15;100.00;98529.72;5067199;28;20918;-83
2021/01/09 07:06:59;;;;;;;11.33;6.27;;;0.60;99.90;;;1.20;100.00;98536.19;5066601;28;20792;-83
2021/01/09 07:09:29;;;;;;;11.73;5.73;;;0.60;99.90;;;1.21;100.00;98543.00;5066823;28;20491;-83
2021/01/09 07:11:57;;;;;;;13.80;6.83;;;0.70;99.90;;;1.17;100.00;98533.84;5067691;28;20459;-82
2021/01/09 07:14:37;;;;;;;8.70;6.10;;;0.70;99.90;;;1.10;100.00;98553.28;5066041;28;20452;-83
2021/01/09 07:17:10;;;;;;;12.77;5.87;;;0.50;99.90;;;1.12;100.00;98556.53;5066692;28;20963;-83
2021/01/09 07:19:42;;;;;;;10.40;6.43;;;0.50;99.90;;;1.16;100.00;98552.81;5066027;28;20444;-83
2021/01/09 07:22:17;;;;;;;10.60;6.50;;;0.50;99.90;;;1.18;100.00;98552.69;5067745;28;20498;-83
2021/01/09 07:24:48;;;;;;;11.60;6.40;;;0.60;99.90;;;1.16;100.00;98557.13;5066726;28;20444;-83
2021/01/09 07:27:22;;;;;;;9.80;6.13;;;0.60;99.90;;;1.20;100.00;98556.78;5067017;28;20480;-83
2021/01/09 07:29:57;;;;;;;9.47;5.80;;;0.70;99.90;;;1.12;100.00;98561.69;5066656;28;20813;-83
2021/01/09 07:32:44;;;;;;;15.23;7.10;;;0.50;99.90;;;1.07;100.00;98571.53;5066820;28;20461;-84
2021/01/09 07:35:18;;;;;;;8.73;5.67;;;0.40;99.90;;;1.09;100.00;98572.22;5066800;28;20446;-82
2021/01/09 07:37:45;;;;;;;11.67;5.83;;;0.40;99.90;;;1.10;100.00;98573.88;5066771;28;20448;-83
2021/01/09 07:40:19;;;;;;;12.83;7.00;;;0.50;99.90;;;1.10;100.00;98568.72;5067377;28;20888;-83
2021/01/09 07:42:49;;;;;;;7.90;5.77;;;0.50;99.90;;;1.12;100.00;98572.00;5066246;28;20441;-83
2021/01/09 07:45:21;;;;;;;9.90;6.53;;;0.50;99.90;;;1.14;100.00;98577.03;5069278;28;20930;-82
2021/01/09 07:47:50;;;;;;;11.80;6.23;;;0.50;99.90;;;1.08;100.00;98568.00;5070206;28;20798;-83
2021/01/09 07:50:20;;;;;;;9.60;5.60;;;0.40;99.90;;;1.17;100.00;98572.47;5071051;28;20448;-83
2021/01/09 07:52:56;;;;;;;9.87;6.30;;;0.60;99.90;;;1.20;100.00;98581.72;5071134;28;20433;-83
2021/01/09 07:55:45;;;;;;;9.90;5.70;;;0.70;99.90;;;1.23;100.00;98584.88;5070658;28;20527;-83
2021/01/09 07:58:14;;;;;;;8.97;6.10;;;0.70;99.90;;;1.18;100.00;98579.25;5072396;28;20943;-83
2021/01/09 08:00:43;;;;;;;10.03;5.50;;;0.50;99.90;;;1.19;100.00;98578.31;5069489;28;20999;-83
2021/01/09 08:03:14;;;;;;;9.77;6.27;;;0.60;99.90;;;1.29;100.00;98593.91;5070640;28;20853;-83
2021/01/09 08:05:43;;;;;;;11.70;6.33;;;0.70;99.90;;;1.23;100.00;98594.38;5069981;28;20476;-83
2021/01/09 08:08:13;;;;;;;9.10;6.40;;;0.70;99.90;;;1.30;100.00;98606.66;5070501;28;20464;-82
2021/01/09 08:10:42;;;;;;;9.73;6.77;;;0.80;99.90;;;1.26;100.00;98602.69;5070905;28;20444;-82
2021/01/09 08:13:11;;;;;;;11.77;6.67;;;0.70;99.90;;;1.29;100.00;98606.78;5071376;28;20819;-83
2021/01/09 08:15:39;;;;;;;10.73;6.10;;;0.70;99.90;;;1.31;100.00;98618.63;5069899;28;20444;-83
2021/01/09 08:18:08;;;;;;;10.53;6.33;;;0.70;99.90;;;1.27;100.00;98609.47;5046642;28;20510;-83
2021/01/09 08:20:38;;;;;;;10.23;6.20;;;0.70;99.90;;;1.31;100.00;98623.78;5070768;28;20488;-83
2021/01/09 08:23:08;;;;;;;10.63;6.70;;;0.80;99.90;;;1.32;100.00;98617.66;5070313;28;20494;-83
2021/01/09 08:25:39;;;;;;;10.40;6.77;;;0.70;99.90;;;1.32;100.00;98625.41;5069050;28;20448;-82
2021/01/09 08:28:07;;;;;;;10.87;4.97;;;0.70;99.90;;;1.31;100.00;98623.78;5069064;28;20476;-83
2021/01/09 08:30:38;;;;;;;10.13;6.47;;;0.70;99.90;;;1.33;100.00;98626.22;5070371;28;20992;-83
2021/01/09 08:33:09;;;;;;;9.00;5.90;;;0.70;99.90;;;1.34;100.00;98628.69;5069308;28;20907;-83
2021/01/09 08:35:46;;;;;;;13.97;6.97;;;0.70;99.90;;;1.30;100.00;98634.19;5069872;28;20819;-83
2021/01/09 08:38:17;;;;;;;11.80;6.60;;;0.70;99.90;;;1.33;100.00;98639.91;5070604;28;20436;-82
2021/01/09 08:40:45;;;;;;;9.20;6.60;;;0.80;99.90;;;1.38;100.00;98640.41;5068580;28;20510;-83
2021/01/09 08:43:15;;;;;;;10.40;6.07;;;0.80;99.90;;;1.43;100.00;98638.28;5069593;28;20448;-83
2021/01/09 08:45:50;;;;;;;13.53;7.47;;;0.90;99.90;;;1.45;100.00;98640.78;5070180;28;20453;-82
2021/01/09 08:48:22;;;;;;;11.03;7.27;;;0.90;99.90;;;1.43;100.00;98645.19;5070437;28;20444;-83
2021/01/09 08:51:13;;;;;;;9.40;5.53;;;0.90;99.90;;;1.42;100.00;98652.09;5068799;28;20453;-82
2021/01/09 08:53:55;;;;;;;10.20;6.17;;;0.90;99.90;;;1.35;100.00;98650.94;5065164;28;21068;-83
2021/01/09 08:56:27;;;;;;;6.80;4.90;;;0.70;99.90;;;1.40;100.00;98651.41;5070061;28;20459;-83
2021/01/09 08:59:00;;;;;;;9.97;6.73;;;0.80;99.90;;;1.43;100.00;98658.91;5069160;28;20456;-82
2021/01/09 09:01:36;;;;;;;12.67;6.10;;;0.90;99.90;;;1.47;100.00;98665.47;5068683;28;20491;-83
2021/01/09 09:04:08;;;;;;;12.20;7.10;;;0.90;99.90;;;1.50;100.00;98659.25;5067541;28;20466;-82
2021/01/09 09:06:42;;;;;;;12.53;6.40;;;1.00;99.90;;;1.40;100.00;98659.13;5069744;28;20513;-82
2021/01/09 09:09:17;;;;;;;23.10;5.87;;;0.80;99.90;;;1.42;100.00;98659.84;5068702;28;20956;-83
2021/01/09 09:11:51;;;;;;;9.77;6.43;;;0.80;99.90;;;1.50;100.00;98662.66;5069494;28;20443;-82
2021/01/09 09:14:19;;;;;;;9.77;6.50;;;0.80;99.90;;;1.49;100.00;98655.06;5068961;28;20457;-82
2021/01/09 09:16:58;;;;;;;10.73;6.30;;;0.90;99.90;;;1.49;100.00;98663.59;5067040;28;20455;-82
2021/01/09 09:19:27;;;;;;;11.27;6.50;;;0.80;99.90;;;1.63;100.00;98660.00;5069403;28;20948;-82
2021/01/09 09:22:00;;;;;;;11.20;6.30;;;1.20;99.90;;;1.70;100.00;98657.78;5069469;28;20492;-82
2021/01/09 09:24:41;;;;;;;9.27;5.90;;;1.20;99.90;;;1.66;100.00;98657.19;5069263;28;20766;-83
2021/01/09 09:27:24;;;;;;;9.63;5.43;;;1.10;99.90;;;1.71;100.00;98654.25;5068227;28;20476;-82
2021/01/09 09:30:11;;;;;;;9.10;6.17;;;1.20;99.90;;;1.66;100.00;98658.94;5069328;28;20814;-82
2021/01/09 09:32:43;;;;;;;8.50;5.10;;;1.10;99.90;;;1.69;100.00;98661.28;5067718;28;20436;-82
2021/01/09 09:35:26;;;;;;;11.00;5.83;;;1.20;99.90;;;1.57;100.00;98654.47;5069002;28;20566;-82
2021/01/09 09:37:59;;;;;;;8.20;5.80;;;1.00;99.90;;;1.58;100.00;98662.09;5069772;28;20455;-82
2021/01/09 09:40:30;;;;;;;11.95;6.55;;;1.00;99.90;;;1.57;100.00;98664.78;5069683;28;20502;-82
2021/01/09 09:43:16;;;;;;;9.27;5.40;;;1.00;99.90;;;1.56;100.00;98670.88;5067732;28;20996;-82
2021/01/09 09:46:01;;;;;;;9.27;5.13;;;1.00;99.90;;;1.52;100.00;98672.88;5067160;28;20969;-83
2021/01/09 09:48:34;;;;;;;7.13;5.00;;;0.90;99.90;;;1.57;100.00;98675.91;5067017;28;20535;-83
2021/01/09 09:51:06;;;;;;;7.17;5.30;;;1.00;99.90;;;1.54;100.00;98671.00;5069403;28;20444;-83
2021/01/09 09:53:35;;;;;;;8.60;4.50;;;1.00;99.90;;;1.60;100.00;98674.88;5069589;28;20471;-83
2021/01/09 09:56:16;;;;;;;7.67;4.80;;;1.00;99.90;;;1.60;100.00;98678.25;5068479;28;20487;-83
2021/01/09 09:59:01;;;;;;;7.10;4.30;;;1.00;99.90;;;1.62;100.00;98678.16;5068047;28;20559;-83
2021/01/09 10:01:30;;;;;;;8.40;4.93;;;1.00;99.90;;;1.59;100.00;98674.06;5068324;28;20531;-83
2021/01/09 10:04:00;;;;;;;7.20;4.13;;;1.00;99.90;;;1.60;100.00;98669.72;5067673;28;20528;-83
2021/01/09 10:06:36;;;;;;;6.30;4.17;;;1.00;99.90;;;1.62;100.00;98670.41;5067271;28;20487;-80
2021/01/09 10:09:15;;;;;;;7.23;4.20;;;1.10;99.90;;;1.65;100.00;98667.59;5068735;28;20455;-83
2021/01/09 10:11:44;;;;;;;8.87;4.80;;;1.10;99.90;;;1.60;100.00;98669.72;5071257;28;20448;-83
2021/01/09 10:14:22;;;;;;;6.70;3.70;;;1.00;99.90;;;1.58;100.00;98663.84;5067467;28;20464;-82
2021/01/09 10:16:50;;;;;;;6.97;4.20;;;1.00;99.90;;;1.58;100.00;98667.25;5067581;28;20521;-83
2021/01/09 10:19:19;;;;;;;5.00;3.57;;;0.90;99.90;;;1.61;100.00;98671.34;5067915;28;20468;-83
2021/01/09 10:21:47;;;;;;;6.70;4.53;;;1.00;99.90;;;1.66;100.00;98670.06;5068102;28;20582;-83
2021/01/09 10:24:15;;;;;;;7.70;3.90;;;1.10;99.90;;;1.73;100.00;98666.09;5068483;28;20468;-83
2021/01/09 10:26:46;;;;;;;6.17;3.80;;;1.10;99.90;;;1.78;100.00;98673.47;5067281;28;20448;-82
2021/01/09 10:29:16;;;;;;;6.00;4.00;;;1.20;99.90;;;1.75;100.00;98673.69;5067531;28;20842;-83
2021/01/09 10:31:44;;;;;;;5.00;3.27;;;1.10;99.90;;;1.80;100.00;98666.47;5067247;28;20448;-83
2021/01/09 10:34:12;;;;;;;7.67;4.20;;;1.20;99.90;;;1.77;100.00;98671.84;5067756;28;20924;-83
2021/01/09 10:36:41;;;;;;;6.83;3.60;;;1.10;99.90;;;1.79;100.00;98670.78;5067764;28;20444;-83
2021/01/09 10:39:09;;;;;;;4.97;3.63;;;1.20;99.90;;;1.85;100.00;98672.88;5067164;28;20455;-82